MDT,Max TemperatureF,Mean TemperatureF,Min TemperatureF,Max Dew PointF,MeanDew PointF,Min DewpointF,Max Humidity, Mean Humidity, Min Humidity, Max Sea Level PressureIn, Mean Sea Level PressureIn, Min Sea Level PressureIn, Max VisibilityMiles, Mean VisibilityMiles, Min VisibilityMiles, Max Wind SpeedMPH, Mean Wind SpeedMPH, Max Gust SpeedMPH,PrecipitationIn, CloudCover, Events, WindDirDegrees
2013-8-1,76,64,51,54,45,38,89,62,35,30.12,29.98,29.83,10,9,1,40,8,53,0.61,5,Rain-Thunderstorm,303
2013-8-2,71,58,45,50,44,34,100,63,26,30.09,30.00,29.90,10,10,3,18,6,30,0.01,3,Rain-Thunderstorm,315
2013-8-3,77,60,42,45,39,30,89,54,19,30.12,30.06,30.00,10,10,10,17,5,23,0.00,1,,85
2013-8-4,80,62,44,43,37,27,83,50,16,30.09,30.04,29.97,10,10,10,16,5,24,0.00,0,,24
2013-8-5,80,62,43,43,38,36,76,49,21,30.15,30.01,29.89,10,8,1,22,5,29,T,1,Rain-Thunderstorm,323
2013-8-6,79,62,44,42,38,35,76,49,21,30.03,29.99,29.95,10,10,10,16,5,28,0.00,1,,330
2013-8-7,83,63,42,40,35,30,76,46,16,30.02,29.97,29.91,10,10,10,16,4,24,0.00,0,,348
2013-8-8,84,64,43,51,39,28,72,43,14,30.13,29.99,29.91,10,10,10,17,5,25,0.00,1,Thunderstorm,353
2013-8-9,78,64,50,54,48,44,89,61,33,30.16,30.04,29.96,10,10,4,20,5,24,0.06,1,Rain-Thunderstorm,139
2013-8-10,81,63,44,48,41,31,93,60,26,30.14,30.05,29.96,10,10,10,23,4,29,T,2,Rain-Thunderstorm,320
2013-8-11,84,65,45,45,41,34,71,44,17,30.18,30.06,29.96,10,10,10,25,4,41,T,2,Rain-Thunderstorm,20
2013-8-12,82,62,42,46,42,34,83,52,20,30.27,30.09,30.00,10,10,9,31,6,44,0.06,2,Rain-Thunderstorm,342
2013-8-13,83,62,41,45,40,34,89,54,18,30.18,30.10,30.01,10,10,10,25,4,32,0.00,1,,255
2013-8-14,83,64,44,43,37,32,76,47,17,30.12,30.04,29.98,10,10,10,15,4,21,0.00,0,,324
2013-8-15,89,67,44,38,31,19,65,37,8,30.04,29.98,29.92,10,10,10,18,4,26,0.00,0,,251
2013-8-16,92,69,45,35,29,20,58,33,8,30.08,29.94,29.88,10,10,10,24,6,37,0.00,0,,334
2013-8-17,86,67,47,44,36,25,61,36,11,30.07,29.98,29.90,10,10,10,20,4,25,0.00,0,,358
2013-8-18,85,68,50,43,39,30,68,41,14,30.05,29.98,29.91,10,10,10,24,6,33,0.00,0,,336
2013-8-19,87,66,45,41,32,23,71,41,10,30.06,29.98,29.90,10,10,10,24,7,37,0.00,0,,282
2013-8-20,86,65,43,36,31,27,53,33,12,30.02,29.96,29.90,10,10,10,21,6,31,0.00,0,,333
2013-8-21,86,65,44,36,34,30,65,40,14,30.09,30.04,29.98,10,10,10,16,4,21,0.00,0,,92
2013-8-22,85,67,48,54,42,34,78,51,23,30.10,30.00,29.90,10,10,8,26,5,31,0.04,2,Rain-Thunderstorm,153
2013-8-23,78,63,47,54,46,39,93,61,29,30.07,29.91,29.81,10,10,4,29,6,37,0.04,2,Rain-Thunderstorm,148
2013-8-24,80,63,45,48,42,34,86,53,19,29.96,29.90,29.82,10,10,9,29,5,39,0.00,0,,168
2013-8-25,85,66,46,44,41,35,76,47,18,30.03,29.94,29.84,10,10,10,25,7,35,T,0,,188
2013-8-26,81,63,44,60,47,37,86,54,21,30.13,30.00,29.90,10,9,1,35,6,47,0.34,4,Rain-Thunderstorm,47
2013-8-27,81,63,44,51,43,35,93,57,20,30.09,29.99,29.92,10,10,10,30,4,37,0.01,1,,136
2013-8-28,77,62,46,55,48,41,93,66,38,30.22,30.03,29.92,10,9,2,23,3,30,0.08,2,Rain-Thunderstorm,18
2013-8-29,83,65,47,55,49,43,93,59,24,30.22,30.07,29.96,10,9,2,31,4,40,0.36,2,Rain-Thunderstorm,171
2013-8-30,83,65,47,53,43,27,100,57,13,30.12,30.03,29.95,10,10,9,21,7,26,0.01,1,,282
2013-8-31,81,62,43,44,40,34,86,52,18,30.15,30.07,30.00,10,10,10,9,4,13,0.00,0,Rain,118